sensor_id;sensor_type;location;lat;lon;timestamp;pressure;altitude;pressure_sealevel;temperature;humidity
9091;BME280;4581;42.416;25.598;2023-11-21T00:01:13;98178.31;;;8.22;nan
9091;BME280;4581;42.416;25.598;2023-11-21T00:03:40;98183.34;;;8.25;nan
9091;BME280;4581;42.416;25.598;2023-11-21T00:06:07;98186.41;;;8.30;nan
9091;BME280;4581;42.416;25.598;2023-11-21T00:08:36;98185.53;;;8.22;nan
9091;BME280;4581;42.416;25.598;2023-11-21T00:11:03;98178.31;;;8.06;nan
9091;BME280;4581;42.416;25.598;2023-11-21T00:13:32;98177.13;;;8.00;nan
9091;BME280;4581;42.416;25.598;2023-11-21T00:15:59;98179.13;;;8.07;nan
9091;BME280;4581;42.416;25.598;2023-11-21T00:18:25;98181.31;;;8.03;nan
9091;BME280;4581;42.416;25.598;2023-11-21T00:20:52;98185.84;;;8.02;nan
9091;BME280;4581;42.416;25.598;2023-11-21T00:23:19;98184.69;;;8.05;nan
9091;BME280;4581;42.416;25.598;2023-11-21T00:25:46;98184.84;;;8.04;nan
9091;BME280;4581;42.416;25.598;2023-11-21T00:28:12;98179.97;;;8.15;nan
9091;BME280;4581;42.416;25.598;2023-11-21T00:30:39;98187.38;;;8.13;nan
9091;BME280;4581;42.416;25.598;2023-11-21T00:33:06;98184.19;;;8.10;nan
9091;BME280;4581;42.416;25.598;2023-11-21T00:35:33;98184.50;;;8.07;nan
9091;BME280;4581;42.416;25.598;2023-11-21T00:38:00;98183.16;;;8.11;nan
9091;BME280;4581;42.416;25.598;2023-11-21T00:40:27;98193.75;;;8.12;nan
9091;BME280;4581;42.416;25.598;2023-11-21T00:42:53;98202.28;;;7.99;nan
9091;BME280;4581;42.416;25.598;2023-11-21T00:45:22;98207.00;;;7.89;nan
9091;BME280;4581;42.416;25.598;2023-11-21T00:47:49;98195.75;;;7.78;nan
9091;BME280;4581;42.416;25.598;2023-11-21T00:50:16;98190.19;;;7.71;nan
9091;BME280;4581;42.416;25.598;2023-11-21T00:52:43;98182.16;;;7.71;nan
9091;BME280;4581;42.416;25.598;2023-11-21T00:55:09;98187.84;;;7.60;nan
9091;BME280;4581;42.416;25.598;2023-11-21T00:57:38;98179.59;;;7.45;nan
9091;BME280;4581;42.416;25.598;2023-11-21T01:00:05;98190.34;;;7.45;nan
9091;BME280;4581;42.416;25.598;2023-11-21T01:02:43;98177.22;;;7.42;nan
9091;BME280;4581;42.416;25.598;2023-11-21T01:05:15;98180.94;;;7.41;nan
9091;BME280;4581;42.416;25.598;2023-11-21T01:07:42;98183.94;;;7.38;nan
9091;BME280;4581;42.416;25.598;2023-11-21T01:10:09;98183.91;;;7.30;nan
9091;BME280;4581;42.416;25.598;2023-11-21T01:12:37;98187.44;;;7.31;nan
9091;BME280;4581;42.416;25.598;2023-11-21T01:15:05;98183.56;;;7.25;nan
9091;BME280;4581;42.416;25.598;2023-11-21T01:17:35;98187.59;;;7.21;nan
9091;BME280;4581;42.416;25.598;2023-11-21T01:20:03;98185.56;;;7.23;nan
9091;BME280;4581;42.416;25.598;2023-11-21T01:22:33;98190.94;;;7.23;nan
9091;BME280;4581;42.416;25.598;2023-11-21T01:24:59;98184.19;;;7.11;nan
9091;BME280;4581;42.416;25.598;2023-11-21T01:27:26;98179.00;;;7.10;nan
9091;BME280;4581;42.416;25.598;2023-11-21T01:29:53;98173.28;;;7.04;nan
9091;BME280;4581;42.416;25.598;2023-11-21T01:32:20;98177.75;;;6.88;nan
9091;BME280;4581;42.416;25.598;2023-11-21T01:34:47;98172.31;;;6.72;nan
9091;BME280;4581;42.416;25.598;2023-11-21T01:37:14;98179.03;;;6.76;nan
9091;BME280;4581;42.416;25.598;2023-11-21T01:39:41;98173.81;;;6.74;nan
9091;BME280;4581;42.416;25.598;2023-11-21T01:42:08;98170.78;;;6.69;nan
9091;BME280;4581;42.416;25.598;2023-11-21T01:44:34;98165.72;;;6.66;nan
9091;BME280;4581;42.416;25.598;2023-11-21T01:47:02;98172.59;;;6.61;nan
9091;BME280;4581;42.416;25.598;2023-11-21T01:49:35;98169.59;;;6.64;nan
9091;BME280;4581;42.416;25.598;2023-11-21T01:52:03;98165.41;;;6.61;nan
9091;BME280;4581;42.416;25.598;2023-11-21T01:54:31;98167.19;;;6.52;nan
9091;BME280;4581;42.416;25.598;2023-11-21T01:56:59;98171.56;;;6.53;nan
9091;BME280;4581;42.416;25.598;2023-11-21T01:59:36;98164.31;;;6.46;nan
9091;BME280;4581;42.416;25.598;2023-11-21T02:02:05;98157.28;;;6.45;nan
9091;BME280;4581;42.416;25.598;2023-11-21T02:04:33;98159.56;;;6.40;nan
9091;BME280;4581;42.416;25.598;2023-11-21T02:07:00;98157.56;;;6.34;nan
9091;BME280;4581;42.416;25.598;2023-11-21T02:09:27;98156.34;;;6.28;nan
9091;BME280;4581;42.416;25.598;2023-11-21T02:11:56;98162.53;;;6.29;nan
9091;BME280;4581;42.416;25.598;2023-11-21T02:14:26;98157.66;;;6.24;nan
9091;BME280;4581;42.416;25.598;2023-11-21T02:16:55;98156.59;;;6.17;nan
9091;BME280;4581;42.416;25.598;2023-11-21T02:19:23;98153.22;;;6.15;nan
9091;BME280;4581;42.416;25.598;2023-11-21T02:21:52;98152.84;;;6.10;nan
9091;BME280;4581;42.416;25.598;2023-11-21T02:24:23;98156.59;;;6.17;nan
9091;BME280;4581;42.416;25.598;2023-11-21T02:26:50;98159.47;;;6.24;nan
9091;BME280;4581;42.416;25.598;2023-11-21T02:29:21;98162.00;;;6.25;nan
9091;BME280;4581;42.416;25.598;2023-11-21T02:31:51;98153.28;;;6.23;nan
9091;BME280;4581;42.416;25.598;2023-11-21T02:34:18;98154.66;;;6.27;nan
9091;BME280;4581;42.416;25.598;2023-11-21T02:36:45;98154.69;;;6.35;nan
9091;BME280;4581;42.416;25.598;2023-11-21T02:39:12;98150.13;;;6.28;nan
9091;BME280;4581;42.416;25.598;2023-11-21T02:41:40;98149.63;;;6.24;nan
9091;BME280;4581;42.416;25.598;2023-11-21T02:44:06;98149.94;;;6.21;nan
9091;BME280;4581;42.416;25.598;2023-11-21T02:46:34;98153.59;;;6.20;nan
9091;BME280;4581;42.416;25.598;2023-11-21T02:49:02;98152.97;;;6.26;nan
9091;BME280;4581;42.416;25.598;2023-11-21T02:51:30;98156.81;;;6.24;nan
9091;BME280;4581;42.416;25.598;2023-11-21T02:53:56;98145.94;;;6.25;nan
9091;BME280;4581;42.416;25.598;2023-11-21T02:56:27;98153.97;;;6.25;nan
9091;BME280;4581;42.416;25.598;2023-11-21T02:58:55;98147.84;;;6.33;nan
9091;BME280;4581;42.416;25.598;2023-11-21T03:01:22;98144.69;;;6.37;nan
9091;BME280;4581;42.416;25.598;2023-11-21T03:03:50;98144.00;;;6.35;nan
9091;BME280;4581;42.416;25.598;2023-11-21T03:06:22;98140.69;;;6.41;nan
9091;BME280;4581;42.416;25.598;2023-11-21T03:08:50;98142.16;;;6.36;nan
9091;BME280;4581;42.416;25.598;2023-11-21T03:11:17;98158.06;;;6.37;nan
9091;BME280;4581;42.416;25.598;2023-11-21T03:13:44;98153.00;;;6.34;nan
9091;BME280;4581;42.416;25.598;2023-11-21T03:16:12;98152.88;;;6.36;nan
9091;BME280;4581;42.416;25.598;2023-11-21T03:18:39;98162.72;;;6.35;nan
9091;BME280;4581;42.416;25.598;2023-11-21T03:21:07;98151.81;;;6.29;nan
9091;BME280;4581;42.416;25.598;2023-11-21T03:23:37;98163.94;;;6.41;nan
9091;BME280;4581;42.416;25.598;2023-11-21T03:26:04;98163.16;;;6.48;nan
9091;BME280;4581;42.416;25.598;2023-11-21T03:28:30;98160.16;;;6.51;nan
9091;BME280;4581;42.416;25.598;2023-11-21T03:30:57;98167.19;;;6.52;nan
9091;BME280;4581;42.416;25.598;2023-11-21T03:33:24;98165.44;;;6.43;nan
9091;BME280;4581;42.416;25.598;2023-11-21T03:35:51;98164.75;;;6.33;nan
9091;BME280;4581;42.416;25.598;2023-11-21T03:38:19;98166.25;;;6.36;nan
9091;BME280;4581;42.416;25.598;2023-11-21T03:40:47;98166.34;;;6.26;nan
9091;BME280;4581;42.416;25.598;2023-11-21T03:43:14;98163.31;;;6.21;nan
9091;BME280;4581;42.416;25.598;2023-11-21T03:45:40;98161.50;;;6.22;nan
9091;BME280;4581;42.416;25.598;2023-11-21T03:48:07;98160.31;;;6.24;nan
9091;BME280;4581;42.416;25.598;2023-11-21T03:50:35;98181.22;;;6.21;nan
9091;BME280;4581;42.416;25.598;2023-11-21T03:53:02;98173.31;;;6.19;nan
9091;BME280;4581;42.416;25.598;2023-11-21T03:55:28;98179.38;;;6.21;nan
9091;BME280;4581;42.416;25.598;2023-11-21T03:57:58;98182.06;;;6.21;nan
9091;BME280;4581;42.416;25.598;2023-11-21T04:00:25;98177.38;;;6.23;nan
9091;BME280;4581;42.416;25.598;2023-11-21T04:02:53;98164.16;;;6.22;nan
9091;BME280;4581;42.416;25.598;2023-11-21T04:05:21;98173.31;;;6.19;nan
9091;BME280;4581;42.416;25.598;2023-11-21T04:07:51;98178.47;;;6.13;nan
9091;BME280;4581;42.416;25.598;2023-11-21T04:10:18;98187.03;;;6.16;nan
9091;BME280;4581;42.416;25.598;2023-11-21T04:12:45;98190.31;;;6.10;nan
9091;BME280;4581;42.416;25.598;2023-11-21T04:15:12;98188.34;;;6.12;nan
9091;BME280;4581;42.416;25.598;2023-11-21T04:17:41;98179.59;;;6.10;nan
9091;BME280;4581;42.416;25.598;2023-11-21T04:20:09;98178.25;;;6.06;nan
9091;BME280;4581;42.416;25.598;2023-11-21T04:22:40;98181.94;;;6.05;nan
9091;BME280;4581;42.416;25.598;2023-11-21T04:25:11;98175.75;;;6.04;nan
9091;BME280;4581;42.416;25.598;2023-11-21T04:27:41;98167.25;;;6.09;nan
9091;BME280;4581;42.416;25.598;2023-11-21T04:30:11;98165.88;;;6.05;nan
9091;BME280;4581;42.416;25.598;2023-11-21T04:32:38;98174.97;;;6.12;nan
9091;BME280;4581;42.416;25.598;2023-11-21T04:35:06;98172.06;;;6.05;nan
9091;BME280;4581;42.416;25.598;2023-11-21T04:37:33;98179.59;;;6.10;nan
9091;BME280;4581;42.416;25.598;2023-11-21T04:39:59;98174.81;;;6.14;nan
9091;BME280;4581;42.416;25.598;2023-11-21T04:42:26;98173.91;;;6.05;nan
9091;BME280;4581;42.416;25.598;2023-11-21T04:44:53;98171.91;;;6.07;nan
9091;BME280;4581;42.416;25.598;2023-11-21T04:47:20;98179.78;;;6.08;nan
9091;BME280;4581;42.416;25.598;2023-11-21T04:49:47;98184.28;;;6.08;nan
9091;BME280;4581;42.416;25.598;2023-11-21T04:52:13;98186.03;;;6.17;nan
9091;BME280;4581;42.416;25.598;2023-11-21T04:54:40;98185.66;;;6.12;nan
9091;BME280;4581;42.416;25.598;2023-11-21T04:57:07;98200.72;;;6.13;nan
9091;BME280;4581;42.416;25.598;2023-11-21T04:59:34;98201.72;;;6.12;nan
9091;BME280;4581;42.416;25.598;2023-11-21T05:02:01;98185.47;;;6.05;nan
9091;BME280;4581;42.416;25.598;2023-11-21T05:04:29;98197.03;;;6.14;nan
9091;BME280;4581;42.416;25.598;2023-11-21T05:06:56;98197.34;;;6.11;nan
9091;BME280;4581;42.416;25.598;2023-11-21T05:09:23;98198.34;;;6.10;nan
9091;BME280;4581;42.416;25.598;2023-11-21T05:11:50;98213.41;;;6.11;nan
9091;BME280;4581;42.416;25.598;2023-11-21T05:14:16;98226.78;;;6.11;nan
9091;BME280;4581;42.416;25.598;2023-11-21T05:16:45;98225.16;;;6.18;nan
9091;BME280;4581;42.416;25.598;2023-11-21T05:19:12;98232.00;;;6.13;nan
9091;BME280;4581;42.416;25.598;2023-11-21T05:21:39;98228.34;;;6.14;nan
9091;BME280;4581;42.416;25.598;2023-11-21T05:24:06;98234.22;;;6.17;nan
9091;BME280;4581;42.416;25.598;2023-11-21T05:26:33;98227.25;;;6.24;nan
9091;BME280;4581;42.416;25.598;2023-11-21T05:29:00;98226.44;;;6.32;nan
9091;BME280;4581;42.416;25.598;2023-11-21T05:31:26;98230.03;;;6.40;nan
9091;BME280;4581;42.416;25.598;2023-11-21T05:33:53;98233.75;;;6.47;nan
9091;BME280;4581;42.416;25.598;2023-11-21T05:36:20;98238.44;;;6.45;nan
9091;BME280;4581;42.416;25.598;2023-11-21T05:38:47;98226.63;;;6.56;nan
9091;BME280;4581;42.416;25.598;2023-11-21T05:41:15;98230.72;;;6.68;nan
9091;BME280;4581;42.416;25.598;2023-11-21T05:43:41;98221.38;;;6.72;nan
9091;BME280;4581;42.416;25.598;2023-11-21T05:46:08;98220.41;;;6.81;nan
9091;BME280;4581;42.416;25.598;2023-11-21T05:48:35;98225.31;;;6.86;nan
9091;BME280;4581;42.416;25.598;2023-11-21T05:51:05;98220.59;;;6.88;nan
9091;BME280;4581;42.416;25.598;2023-11-21T05:53:32;98223.97;;;6.90;nan
9091;BME280;4581;42.416;25.598;2023-11-21T05:56:00;98224.66;;;6.92;nan
9091;BME280;4581;42.416;25.598;2023-11-21T05:58:26;98233.06;;;6.97;nan
9091;BME280;4581;42.416;25.598;2023-11-21T06:00:53;98233.56;;;7.00;nan
9091;BME280;4581;42.416;25.598;2023-11-21T06:03:20;98237.25;;;6.99;nan
9091;BME280;4581;42.416;25.598;2023-11-21T06:05:47;98246.00;;;7.10;nan
9091;BME280;4581;42.416;25.598;2023-11-21T06:08:13;98248.56;;;7.19;nan
9091;BME280;4581;42.416;25.598;2023-11-21T06:10:43;98244.38;;;7.17;nan
9091;BME280;4581;42.416;25.598;2023-11-21T06:13:10;98249.91;;;7.23;nan
9091;BME280;4581;42.416;25.598;2023-11-21T06:15:37;98240.84;;;7.16;nan
9091;BME280;4581;42.416;25.598;2023-11-21T06:18:04;98236.97;;;7.19;nan
9091;BME280;4581;42.416;25.598;2023-11-21T06:20:33;98240.22;;;7.30;nan
9091;BME280;4581;42.416;25.598;2023-11-21T06:22:59;98246.25;;;7.32;nan
9091;BME280;4581;42.416;25.598;2023-11-21T06:25:29;98243.91;;;7.29;nan
9091;BME280;4581;42.416;25.598;2023-11-21T06:27:59;98245.75;;;7.29;nan
9091;BME280;4581;42.416;25.598;2023-11-21T06:30:26;98249.44;;;7.28;nan
9091;BME280;4581;42.416;25.598;2023-11-21T06:32:53;98262.53;;;6.97;nan
9091;BME280;4581;42.416;25.598;2023-11-21T06:35:20;98266.09;;;7.05;nan
9091;BME280;4581;42.416;25.598;2023-11-21T06:37:47;98264.28;;;6.80;nan
9091;BME280;4581;42.416;25.598;2023-11-21T06:40:15;98270.38;;;6.98;nan
9091;BME280;4581;42.416;25.598;2023-11-21T06:42:42;98262.09;;;7.10;nan
9091;BME280;4581;42.416;25.598;2023-11-21T06:45:10;98271.78;;;7.11;nan
9091;BME280;4581;42.416;25.598;2023-11-21T06:47:38;98272.69;;;7.19;nan
9091;BME280;4581;42.416;25.598;2023-11-21T06:50:06;98281.13;;;7.32;nan
9091;BME280;4581;42.416;25.598;2023-11-21T06:52:33;98277.66;;;7.48;nan
9091;BME280;4581;42.416;25.598;2023-11-21T06:55:00;98269.75;;;7.46;nan
9091;BME280;4581;42.416;25.598;2023-11-21T06:57:27;98267.69;;;7.66;nan
9091;BME280;4581;42.416;25.598;2023-11-21T06:59:54;98273.34;;;7.63;nan
9091;BME280;4581;42.416;25.598;2023-11-21T07:02:21;98277.91;;;7.79;nan
9091;BME280;4581;42.416;25.598;2023-11-21T07:04:47;98269.72;;;7.88;nan
9091;BME280;4581;42.416;25.598;2023-11-21T07:07:14;98272.09;;;7.99;nan
9091;BME280;4581;42.416;25.598;2023-11-21T07:09:41;98282.19;;;8.06;nan
9091;BME280;4581;42.416;25.598;2023-11-21T07:12:08;98277.66;;;8.06;nan
9091;BME280;4581;42.416;25.598;2023-11-21T07:14:34;98271.59;;;8.20;nan
9091;BME280;4581;42.416;25.598;2023-11-21T07:17:01;98262.75;;;8.44;nan
9091;BME280;4581;42.416;25.598;2023-11-21T07:19:28;98266.59;;;8.66;nan
9091;BME280;4581;42.416;25.598;2023-11-21T07:21:55;98263.53;;;8.85;nan
9091;BME280;4581;42.416;25.598;2023-11-21T07:24:22;98261.81;;;9.00;nan
9091;BME280;4581;42.416;25.598;2023-11-21T07:26:52;98263.63;;;9.16;nan
9091;BME280;4581;42.416;25.598;2023-11-21T07:29:26;98274.31;;;9.32;nan
9091;BME280;4581;42.416;25.598;2023-11-21T07:31:53;98266.56;;;9.37;nan
9091;BME280;4581;42.416;25.598;2023-11-21T07:34:20;98261.69;;;9.40;nan
9091;BME280;4581;42.416;25.598;2023-11-21T07:36:48;98260.22;;;9.30;nan
9091;BME280;4581;42.416;25.598;2023-11-21T07:39:14;98265.53;;;9.46;nan
9091;BME280;4581;42.416;25.598;2023-11-21T07:41:43;98263.69;;;9.47;nan
9091;BME280;4581;42.416;25.598;2023-11-21T07:44:16;98261.28;;;9.52;nan
9091;BME280;4581;42.416;25.598;2023-11-21T07:46:44;98256.34;;;9.63;nan
9091;BME280;4581;42.416;25.598;2023-11-21T07:49:12;98259.78;;;9.80;nan
9091;BME280;4581;42.416;25.598;2023-11-21T07:51:43;98256.56;;;9.84;nan
9091;BME280;4581;42.416;25.598;2023-11-21T07:54:11;98259.53;;;9.98;nan
9091;BME280;4581;42.416;25.598;2023-11-21T07:56:37;98255.53;;;10.16;nan
9091;BME280;4581;42.416;25.598;2023-11-21T07:59:04;98252.94;;;10.31;nan
9091;BME280;4581;42.416;25.598;2023-11-21T08:01:31;98248.50;;;10.53;nan
9091;BME280;4581;42.416;25.598;2023-11-21T08:03:58;98249.22;;;10.69;nan
9091;BME280;4581;42.416;25.598;2023-11-21T08:06:30;98257.78;;;10.88;nan
9091;BME280;4581;42.416;25.598;2023-11-21T08:08:57;98243.56;;;11.08;nan
9091;BME280;4581;42.416;25.598;2023-11-21T08:11:24;98257.16;;;11.30;nan
9091;BME280;4581;42.416;25.598;2023-11-21T08:13:51;98254.38;;;11.38;nan
9091;BME280;4581;42.416;25.598;2023-11-21T08:16:18;98257.34;;;11.43;nan
9091;BME280;4581;42.416;25.598;2023-11-21T08:18:45;98258.25;;;11.50;nan
9091;BME280;4581;42.416;25.598;2023-11-21T08:21:13;98250.34;;;11.63;nan
9091;BME280;4581;42.416;25.598;2023-11-21T08:23:39;98250.22;;;11.71;nan
9091;BME280;4581;42.416;25.598;2023-11-21T08:26:06;98251.56;;;11.75;nan
9091;BME280;4581;42.416;25.598;2023-11-21T08:28:33;98251.06;;;11.86;nan
9091;BME280;4581;42.416;25.598;2023-11-21T08:31:01;98247.28;;;12.02;nan
9091;BME280;4581;42.416;25.598;2023-11-21T08:33:27;98249.03;;;12.09;nan
9091;BME280;4581;42.416;25.598;2023-11-21T08:35:54;98247.88;;;12.18;nan
9091;BME280;4581;42.416;25.598;2023-11-21T08:38:21;98231.13;;;12.30;nan
9091;BME280;4581;42.416;25.598;2023-11-21T08:40:48;98233.56;;;12.46;nan
9091;BME280;4581;42.416;25.598;2023-11-21T08:43:15;98222.81;;;12.52;nan
9091;BME280;4581;42.416;25.598;2023-11-21T08:45:42;98229.06;;;12.81;nan
9091;BME280;4581;42.416;25.598;2023-11-21T08:48:09;98235.84;;;12.98;nan
9091;BME280;4581;42.416;25.598;2023-11-21T08:50:38;98236.81;;;13.11;nan
9091;BME280;4581;42.416;25.598;2023-11-21T08:53:05;98236.00;;;13.18;nan
9091;BME280;4581;42.416;25.598;2023-11-21T08:55:32;98234.75;;;13.20;nan
9091;BME280;4581;42.416;25.598;2023-11-21T08:58:04;98233.22;;;13.39;nan
9091;BME280;4581;42.416;25.598;2023-11-21T09:00:32;98222.47;;;13.52;nan
9091;BME280;4581;42.416;25.598;2023-11-21T09:03:01;98215.59;;;13.56;nan
9091;BME280;4581;42.416;25.598;2023-11-21T09:05:28;98212.91;;;13.69;nan
9091;BME280;4581;42.416;25.598;2023-11-21T09:07:56;98214.03;;;13.88;nan
9091;BME280;4581;42.416;25.598;2023-11-21T09:10:23;98200.09;;;13.97;nan
9091;BME280;4581;42.416;25.598;2023-11-21T09:12:52;98210.09;;;13.97;nan
9091;BME280;4581;42.416;25.598;2023-11-21T09:15:19;98206.75;;;14.01;nan
9091;BME280;4581;42.416;25.598;2023-11-21T09:17:47;98199.09;;;14.25;nan
9091;BME280;4581;42.416;25.598;2023-11-21T09:20:14;98197.25;;;14.38;nan
9091;BME280;4581;42.416;25.598;2023-11-21T09:22:41;98194.97;;;14.42;nan
9091;BME280;4581;42.416;25.598;2023-11-21T09:25:08;98195.59;;;14.44;nan
9091;BME280;4581;42.416;25.598;2023-11-21T09:27:35;98193.03;;;14.23;nan
9091;BME280;4581;42.416;25.598;2023-11-21T09:30:02;98188.88;;;14.20;nan
9091;BME280;4581;42.416;25.598;2023-11-21T09:32:31;98178.88;;;14.27;nan
9091;BME280;4581;42.416;25.598;2023-11-21T09:34:58;98180.34;;;14.36;nan
9091;BME280;4581;42.416;25.598;2023-11-21T09:37:27;98177.84;;;14.41;nan
9091;BME280;4581;42.416;25.598;2023-11-21T09:39:54;98177.88;;;14.48;nan
9091;BME280;4581;42.416;25.598;2023-11-21T09:42:36;98170.78;;;14.47;nan
9091;BME280;4581;42.416;25.598;2023-11-21T09:45:24;98172.63;;;14.53;nan
9091;BME280;4581;42.416;25.598;2023-11-21T09:47:56;98157.38;;;14.65;nan
9091;BME280;4581;42.416;25.598;2023-11-21T09:50:23;98150.50;;;14.69;nan
9091;BME280;4581;42.416;25.598;2023-11-21T09:55:34;98151.53;;;14.88;nan
9091;BME280;4581;42.416;25.598;2023-11-21T09:58:05;98144.66;;;14.79;nan
9091;BME280;4581;42.416;25.598;2023-11-21T10:00:43;98147.69;;;15.09;nan
9091;BME280;4581;42.416;25.598;2023-11-21T10:03:10;98148.13;;;15.06;nan
9091;BME280;4581;42.416;25.598;2023-11-21T10:05:37;98129.78;;;14.94;nan
9091;BME280;4581;42.416;25.598;2023-11-21T10:08:07;98133.31;;;15.08;nan
9091;BME280;4581;42.416;25.598;2023-11-21T10:10:35;98134.31;;;15.14;nan
9091;BME280;4581;42.416;25.598;2023-11-21T10:13:04;98128.03;;;15.13;nan
9091;BME280;4581;42.416;25.598;2023-11-21T10:15:34;98132.19;;;15.22;nan
9091;BME280;4581;42.416;25.598;2023-11-21T10:18:03;98120.66;;;15.40;nan
9091;BME280;4581;42.416;25.598;2023-11-21T10:20:31;98125.38;;;15.58;nan
9091;BME280;4581;42.416;25.598;2023-11-21T10:22:58;98118.72;;;15.54;nan
9091;BME280;4581;42.416;25.598;2023-11-21T10:25:25;98121.44;;;15.54;nan
9091;BME280;4581;42.416;25.598;2023-11-21T10:27:57;98117.03;;;15.59;nan
9091;BME280;4581;42.416;25.598;2023-11-21T10:30:34;98118.31;;;15.50;nan
9091;BME280;4581;42.416;25.598;2023-11-21T10:33:06;98111.19;;;15.56;nan
9091;BME280;4581;42.416;25.598;2023-11-21T10:35:43;98108.03;;;15.59;nan
9091;BME280;4581;42.416;25.598;2023-11-21T10:38:17;98103.50;;;15.77;nan
9091;BME280;4581;42.416;25.598;2023-11-21T10:40:44;98105.81;;;15.80;nan
9091;BME280;4581;42.416;25.598;2023-11-21T10:43:13;98100.19;;;15.75;nan
9091;BME280;4581;42.416;25.598;2023-11-21T10:45:42;98096.66;;;15.75;nan
9091;BME280;4581;42.416;25.598;2023-11-21T10:48:12;98096.00;;;15.73;nan
9091;BME280;4581;42.416;25.598;2023-11-21T10:50:43;98095.31;;;15.46;nan
9091;BME280;4581;42.416;25.598;2023-11-21T10:53:11;98085.81;;;15.24;nan
9091;BME280;4581;42.416;25.598;2023-11-21T10:55:39;98081.88;;;15.13;nan
9091;BME280;4581;42.416;25.598;2023-11-21T10:58:06;98088.78;;;15.16;nan
9091;BME280;4581;42.416;25.598;2023-11-21T11:00:33;98087.47;;;15.31;nan
9091;BME280;4581;42.416;25.598;2023-11-21T11:03:01;98084.34;;;15.28;nan
9091;BME280;4581;42.416;25.598;2023-11-21T11:05:30;98075.34;;;15.27;nan
9091;BME280;4581;42.416;25.598;2023-11-21T11:08:00;98079.03;;;15.53;nan
9091;BME280;4581;42.416;25.598;2023-11-21T11:10:31;98072.31;;;15.49;nan
9091;BME280;4581;42.416;25.598;2023-11-21T11:12:59;98062.22;;;15.62;nan
9091;BME280;4581;42.416;25.598;2023-11-21T11:15:26;98066.97;;;15.98;nan
9091;BME280;4581;42.416;25.598;2023-11-21T11:17:54;98049.25;;;16.63;nan
9091;BME280;4581;42.416;25.598;2023-11-21T11:20:29;98054.66;;;17.36;nan
9091;BME280;4581;42.416;25.598;2023-11-21T11:26:32;98055.06;;;20.22;nan
9091;BME280;4581;42.416;25.598;2023-11-21T11:29:16;98050.44;;;20.94;nan
9091;BME280;4581;42.416;25.598;2023-11-21T11:34:35;98042.91;;;20.46;nan
9091;BME280;4581;42.416;25.598;2023-11-21T11:37:07;98035.44;;;21.19;nan
9091;BME280;4581;42.416;25.598;2023-11-21T11:39:42;98030.94;;;21.56;nan
9091;BME280;4581;42.416;25.598;2023-11-21T11:42:14;98031.09;;;21.44;nan
9091;BME280;4581;42.416;25.598;2023-11-21T11:47:29;98024.78;;;21.00;nan
9091;BME280;4581;42.416;25.598;2023-11-21T11:50:12;98029.94;;;21.40;nan
9091;BME280;4581;42.416;25.598;2023-11-21T11:52:49;98017.44;;;21.76;nan
9091;BME280;4581;42.416;25.598;2023-11-21T11:55:21;98019.41;;;21.54;nan
9091;BME280;4581;42.416;25.598;2023-11-21T11:57:53;98008.44;;;21.11;nan
9091;BME280;4581;42.416;25.598;2023-11-21T12:02:58;98006.88;;;20.93;nan
9091;BME280;4581;42.416;25.598;2023-11-21T12:05:30;98001.88;;;20.30;nan
9091;BME280;4581;42.416;25.598;2023-11-21T12:08:03;97997.78;;;20.16;nan
9091;BME280;4581;42.416;25.598;2023-11-21T12:10:35;97992.81;;;19.51;nan
9091;BME280;4581;42.416;25.598;2023-11-21T12:15:34;97988.41;;;18.82;nan
9091;BME280;4581;42.416;25.598;2023-11-21T12:18:02;97986.56;;;18.47;nan
9091;BME280;4581;42.416;25.598;2023-11-21T12:20:30;97982.28;;;18.51;nan
9091;BME280;4581;42.416;25.598;2023-11-21T12:22:58;97974.75;;;18.82;nan
9091;BME280;4581;42.416;25.598;2023-11-21T12:25:30;97961.72;;;19.12;nan
9091;BME280;4581;42.416;25.598;2023-11-21T12:27:59;97957.09;;;19.12;nan
9091;BME280;4581;42.416;25.598;2023-11-21T12:30:28;97958.44;;;18.98;nan
9091;BME280;4581;42.416;25.598;2023-11-21T12:32:59;97951.47;;;18.91;nan
9091;BME280;4581;42.416;25.598;2023-11-21T12:35:30;97936.22;;;18.66;nan
9091;BME280;4581;42.416;25.598;2023-11-21T12:37:57;97935.94;;;18.16;nan
9091;BME280;4581;42.416;25.598;2023-11-21T12:40:26;97926.66;;;17.94;nan
9091;BME280;4581;42.416;25.598;2023-11-21T12:42:54;97928.06;;;17.62;nan
9091;BME280;4581;42.416;25.598;2023-11-21T12:45:27;97933.59;;;17.44;nan
9091;BME280;4581;42.416;25.598;2023-11-21T12:47:58;97941.88;;;17.37;nan
9091;BME280;4581;42.416;25.598;2023-11-21T12:50:28;97942.03;;;17.12;nan
9091;BME280;4581;42.416;25.598;2023-11-21T12:53:00;97942.75;;;16.90;nan
9091;BME280;4581;42.416;25.598;2023-11-21T12:55:31;97939.75;;;16.79;nan
9091;BME280;4581;42.416;25.598;2023-11-21T12:58:01;97932.63;;;16.42;nan
9091;BME280;4581;42.416;25.598;2023-11-21T13:00:42;97946.53;;;16.34;nan
9091;BME280;4581;42.416;25.598;2023-11-21T13:03:12;97941.41;;;16.26;nan
9091;BME280;4581;42.416;25.598;2023-11-21T13:05:45;97943.00;;;16.15;nan
9091;BME280;4581;42.416;25.598;2023-11-21T13:08:14;97951.91;;;16.04;nan
9091;BME280;4581;42.416;25.598;2023-11-21T13:10:48;97941.34;;;15.89;nan
9091;BME280;4581;42.416;25.598;2023-11-21T13:13:15;97937.66;;;15.84;nan
9091;BME280;4581;42.416;25.598;2023-11-21T13:15:51;97937.84;;;15.64;nan
9091;BME280;4581;42.416;25.598;2023-11-21T13:18:19;97934.41;;;15.51;nan
9091;BME280;4581;42.416;25.598;2023-11-21T13:20:48;97933.28;;;15.27;nan
9091;BME280;4581;42.416;25.598;2023-11-21T13:23:16;97926.69;;;15.16;nan
9091;BME280;4581;42.416;25.598;2023-11-21T13:25:43;97917.09;;;15.14;nan
9091;BME280;4581;42.416;25.598;2023-11-21T13:28:16;97911.53;;;15.02;nan
9091;BME280;4581;42.416;25.598;2023-11-21T13:30:45;97904.47;;;14.94;nan
9091;BME280;4581;42.416;25.598;2023-11-21T13:33:12;97915.53;;;14.93;nan
9091;BME280;4581;42.416;25.598;2023-11-21T13:35:45;97908.34;;;14.74;nan
9091;BME280;4581;42.416;25.598;2023-11-21T13:38:18;97906.47;;;14.74;nan
9091;BME280;4581;42.416;25.598;2023-11-21T13:40:52;97916.88;;;14.77;nan
9091;BME280;4581;42.416;25.598;2023-11-21T13:43:23;97912.75;;;14.75;nan
9091;BME280;4581;42.416;25.598;2023-11-21T13:45:53;97911.91;;;14.74;nan
9091;BME280;4581;42.416;25.598;2023-11-21T13:48:29;97909.84;;;14.70;nan
9091;BME280;4581;42.416;25.598;2023-11-21T13:51:07;97905.69;;;14.67;nan
9091;BME280;4581;42.416;25.598;2023-11-21T13:53:44;97914.25;;;14.64;nan
9091;BME280;4581;42.416;25.598;2023-11-21T13:56:14;97904.00;;;14.66;nan
9091;BME280;4581;42.416;25.598;2023-11-21T13:58:46;97906.59;;;14.55;nan
9091;BME280;4581;42.416;25.598;2023-11-21T14:01:20;97903.69;;;14.49;nan
9091;BME280;4581;42.416;25.598;2023-11-21T14:03:50;97901.59;;;14.45;nan